Kezdőlap
METAR-TAF:

METAR-TAF

Repülőterek :

Vardø, Norvégia

földrajzi szélesség: 70-21N, földrajzi hosszúság: 031-03E, magasság: 12 m

Jelenlegi meteorológiai megfigyelések

A jelentés 21 perccel ezelõtt készült, 06:20 UTC
Északnyugati szél 13 kt
Hőmérséklet 5°C
Páratartalom 70%
Légköri nyomás 1021 hPa
Látótávolság 10 km, vagy több
Szórványos felhőzet 3000 lábon
Szórványos felhőzet 16000 lábon

METAR: ENSS 240620Z 31013KT 9999 SCT030 SCT160 05/M00 Q1021 RMK WIND 500FT 28008KT

Idő: 08:41 (06:41 UTC)


TAF: hiányzik

Meteorológiai megfigyelések és előrejelzések több, mint 4000 repülőtéren (METAR és TAF jelentéseket).

A térképen piros és sárga pontok jelzik az elérhető meteorológiai állomásokat.

Mozgassa az egeret a pont fölött, hogy megjelenjen az állomás neve.

Azután kattintson az időjárási megfigyelések és előrejelzések megtekintéséhez.

A térkép megváltoztatása: kattintson a fekete keresztel jelölt zöld gombra ráközelítéshez, a vonallal jelölt zöld gombra távolításhoz, vagy a zöld nyilakra a szomszédos térképek eléréséhez.


METAR-TAF: